To NAV CANADA Home Page Login to a new session Search on AWWS site Feedback and Comments Disclaimer Vers la page française équivalente Tips FAQ What's new on the site To the Forecasts and Observations / NOTAM section To "File a Flight Plan" website Publications and other links Update of the User's profile FIC Telephone Numbers My Weather Data Folder Route Weather Data Regional Weather Data Local Weather Data To the Forecasts and Observations / NOTAM section
Request Generated 04/25/2014 at 01:14:44 UTC . Weather information available at that time is displayed.

METAR/TAF

OTTAWA/MACDONALD-CARTIER INTL/ON    

METAR CYOW 250100Z 34009KT 15SM FEW250 08/M10 A3005 RMK CI1 SLP180=
METAR CYOW 250000Z 34013KT 15SM FEW250 09/M11 A3004 RMK CI1 CI TR
SLP177=
METAR CYOW 242300Z 34013KT 15SM FEW250 10/M12 A3003 RMK CI1 CI TR
SLP174=

TAF CYOW 242338Z 2500/2524 34012KT P6SM SKC
BECMG 2504/2506 35007KT
FM251200 02005KT P6SM BKN140
BECMG 2516/2518 06008KT
FM252200 07007KT P6SM OVC080
RMK NXT FCST BY 250300Z=
Your time UTC time
Weather data provided by Environment Canada and NAV CANADA